Time;durP1;ratioP1;P1;durP2;ratioP2;P2;SDS_P1;SDS_P2;PMS_P1;PMS_P2;Temp;Humidity;BMP_temperature;BMP_pressure;BME280_temperature;BME280_humidity;BME280_pressure;Samples;Min_cycle;Max_cycle;Signal;HPM_P1;HPM_P2
2022/01/28 00:01:50;;;;;;;191.95;153.57;;;;;;;14.58;30.98;94500.53;5043161;28;20945;-67
2022/01/28 00:04:17;;;;;;;202.48;162.25;;;;;;;14.57;31.15;94497.06;5040060;28;20044;-68
2022/01/28 00:06:43;;;;;;;190.85;153.15;;;;;;;14.57;31.21;94501.69;5045568;28;20055;-68
2022/01/28 00:09:09;;;;;;;187.68;149.50;;;;;;;14.54;31.42;94502.53;5041102;28;20053;-67
2022/01/28 00:11:35;;;;;;;195.23;156.13;;;;;;;14.53;31.14;94501.78;5042269;28;20063;-68
2022/01/28 00:38:52;;;;;;;197.93;156.70;;;;;;;14.50;31.69;94499.94;5039418;28;20141;-68
2022/01/28 00:41:18;;;;;;;192.32;152.93;;;;;;;14.54;31.71;94508.69;5041277;28;20139;-67
2022/01/28 00:43:43;;;;;;;191.13;152.80;;;;;;;14.50;31.83;94510.69;5041328;28;20453;-68
2022/01/28 00:46:09;;;;;;;189.05;151.18;;;;;;;14.48;31.89;94504.97;5042648;28;20092;-67
2022/01/28 00:48:35;;;;;;;191.75;152.63;;;;;;;14.50;31.88;94506.06;5039915;28;20060;-68
2022/01/28 00:51:00;;;;;;;197.43;157.63;;;;;;;14.50;32.04;94516.06;5039573;28;20049;-67
2022/01/28 00:53:26;;;;;;;191.10;152.70;;;;;;;14.48;31.96;94510.34;5043009;28;20626;-68
2022/01/28 00:55:54;;;;;;;194.18;154.18;;;;;;;14.42;32.32;94526.22;5045712;28;22127;-68
2022/01/28 00:58:20;;;;;;;198.65;157.43;;;;;;;14.42;32.38;94533.53;5046445;28;20062;-67
2022/01/28 01:00:46;;;;;;;188.20;151.23;;;;;;;14.45;32.17;94530.78;5042955;28;20485;-67
2022/01/28 01:03:12;;;;;;;192.27;152.30;;;;;;;14.45;32.18;94538.09;5042900;28;20147;-68
2022/01/28 01:05:37;;;;;;;201.48;161.38;;;;;;;14.43;32.27;94533.13;5042029;28;20054;-67
2022/01/28 01:08:05;;;;;;;186.93;149.57;;;;;;;14.42;32.32;94538.94;5042138;28;20167;-68
2022/01/28 01:10:32;;;;;;;197.63;157.60;;;;;;;14.44;32.18;94544.66;5046197;28;20049;-68
2022/01/28 01:12:58;;;;;;;195.40;156.63;;;;;;;14.43;32.30;94559.28;5042009;28;20078;-67
2022/01/28 01:15:29;;;;;;;195.80;155.13;;;;;;;14.38;32.27;94544.34;5043290;28;20507;-68
2022/01/28 01:25:31;;;;;;;191.38;149.55;;;;;;;14.47;32.22;94576.09;5043755;28;20059;-68
2022/01/28 01:27:58;;;;;;;190.80;152.27;;;;;;;14.48;32.20;94580.31;5044369;28;20097;-67
2022/01/28 01:30:27;;;;;;;204.10;164.00;;;;;;;14.50;32.21;94575.28;5042283;28;20141;-67
2022/01/28 01:32:53;;;;;;;189.30;149.32;;;;;;;14.44;32.40;94574.25;5041368;28;20094;-67
2022/01/28 01:35:19;;;;;;;192.02;153.32;;;;;;;14.46;32.17;94593.44;5045169;28;20068;-68
2022/01/28 01:37:44;;;;;;;193.57;153.77;;;;;;;14.44;32.37;94590.41;5044854;28;20659;-68
2022/01/28 01:40:11;;;;;;;196.55;156.02;;;;;;;14.41;32.41;94596.56;5042794;28;20519;-68
2022/01/28 01:42:47;;;;;;;207.70;163.95;;;;;;;14.39;32.52;94590.84;5040102;28;20588;-67
2022/01/28 01:53:36;;;;;;;195.52;152.82;;;;;;;14.47;32.18;94605.72;5045219;28;20112;-67
2022/01/28 01:56:02;;;;;;;200.18;159.18;;;;;;;14.49;31.97;94614.13;5045585;28;20048;-67
2022/01/28 01:58:31;;;;;;;194.10;154.73;;;;;;;14.50;32.13;94611.03;5042458;28;20143;-67
2022/01/28 02:01:01;;;;;;;195.85;156.40;;;;;;;14.48;32.37;94608.00;5046055;28;20056;-67
2022/01/28 02:03:28;;;;;;;192.55;154.23;;;;;;;14.46;32.38;94620.34;5047665;28;20048;-68
2022/01/28 02:05:59;;;;;;;196.52;155.27;;;;;;;14.47;32.29;94617.22;5043958;28;20107;-67
2022/01/28 02:08:30;;;;;;;194.07;154.05;;;;;;;14.48;32.20;94609.91;5042524;28;20097;-68
2022/01/28 02:10:57;;;;;;;197.20;157.10;;;;;;;14.49;32.29;94624.91;5042185;28;20071;-67
2022/01/28 02:13:25;;;;;;;194.93;156.75;;;;;;;14.48;32.37;94629.53;5042608;28;20412;-68
2022/01/28 02:15:50;;;;;;;193.68;153.70;;;;;;;14.45;32.37;94645.72;5044254;28;20059;-68
2022/01/28 02:18:16;;;;;;;195.40;154.63;;;;;;;14.46;32.44;94633.78;5045396;28;20049;-67
2022/01/28 02:20:44;;;;;;;199.85;159.43;;;;;;;14.47;32.48;94651.47;5041859;28;20056;-67
2022/01/28 02:23:09;;;;;;;199.25;157.95;;;;;;;14.42;32.53;94651.94;5038021;28;20041;-67
2022/01/28 02:25:35;;;;;;;195.38;154.52;;;;;;;14.41;32.46;94645.00;5044295;28;20527;-67
2022/01/28 02:28:04;;;;;;;191.15;152.02;;;;;;;14.44;32.46;94646.91;5046117;28;20060;-67
2022/01/28 02:30:30;;;;;;;194.75;153.80;;;;;;;14.47;32.37;94654.91;5045535;28;20049;-68
2022/01/28 02:33:02;;;;;;;194.52;153.93;;;;;;;14.48;32.33;94656.44;5043091;28;20057;-68
2022/01/28 02:35:27;;;;;;;196.95;155.32;;;;;;;14.52;32.16;94661.75;5043758;28;20060;-68
2022/01/28 02:37:53;;;;;;;197.73;157.73;;;;;;;14.52;32.38;94669.81;5042656;28;20038;-67
2022/01/28 02:40:19;;;;;;;196.02;155.93;;;;;;;14.52;32.23;94671.75;5043609;28;20126;-67
2022/01/28 02:42:53;;;;;;;194.85;155.23;;;;;;;14.52;32.32;94677.13;5041900;28;20565;-65
2022/01/28 02:45:29;;;;;;;207.30;164.57;;;;;;;14.48;32.23;94680.66;5046052;28;20056;-65
2022/01/28 02:48:00;;;;;;;199.98;159.43;;;;;;;14.49;32.16;94684.88;5043961;28;20052;-65
2022/01/28 02:50:28;;;;;;;192.48;153.55;;;;;;;14.49;32.29;94690.25;5045367;28;20109;-65
2022/01/28 02:53:03;;;;;;;197.38;156.27;;;;;;;14.43;32.27;94689.19;5038805;28;20768;-65
2022/01/28 02:55:35;;;;;;;191.73;151.20;;;;;;;14.43;32.38;94681.13;5042012;28;20056;-65
2022/01/28 02:58:17;;;;;;;193.77;153.20;;;;;;;14.45;32.17;94676.09;5045645;28;20069;-64
2022/01/28 03:00:43;;;;;;;194.95;152.45;;;;;;;14.46;32.23;94680.31;5045311;28;20093;-65
2022/01/28 03:03:09;;;;;;;192.60;154.05;;;;;;;14.46;32.36;94680.31;5044945;28;20060;-65
2022/01/28 03:05:35;;;;;;;195.10;156.10;;;;;;;14.48;32.37;94691.41;5045326;28;20036;-65
2022/01/28 03:08:03;;;;;;;195.63;154.52;;;;;;;14.49;32.21;94682.16;5043258;28;20118;-65
2022/01/28 03:13:16;;;;;;;197.00;154.65;;;;;;;14.49;32.07;94690.25;5045516;28;20041;-65
2022/01/28 03:15:46;;;;;;;193.98;154.65;;;;;;;14.47;32.25;94695.28;5043095;28;20052;-67
2022/01/28 03:18:19;;;;;;;194.73;155.77;;;;;;;14.48;32.21;94685.28;5041505;28;21014;-67
2022/01/28 03:21:18;;;;;;;192.25;153.35;;;;;;;14.49;32.08;94700.25;5046875;28;20048;-68
2022/01/28 03:23:36;;;;;;;195.73;156.63;;;;;;;14.50;32.29;94691.00;5043401;28;20053;-67
2022/01/28 03:26:01;;;;;;;193.75;153.18;;;;;;;14.49;32.11;94689.47;5032405;28;20795;-68
2022/01/28 03:28:27;;;;;;;191.93;153.43;;;;;;;14.48;32.14;94702.19;5041677;28;20045;-67
2022/01/28 03:30:52;;;;;;;190.45;152.63;;;;;;;14.48;31.95;94710.25;5041305;28;20072;-67
2022/01/28 03:33:18;;;;;;;194.88;155.63;;;;;;;14.48;32.23;94712.94;5040511;28;20413;-67
2022/01/28 03:35:44;;;;;;;190.18;151.77;;;;;;;14.48;31.96;94709.50;5043907;28;20049;-67
2022/01/28 03:38:12;;;;;;;197.60;158.52;;;;;;;14.49;32.15;94716.41;5043421;28;20265;-68
2022/01/28 03:40:39;;;;;;;201.95;161.20;;;;;;;14.49;32.07;94722.53;5039827;28;20056;-68
2022/01/28 03:43:05;;;;;;;195.30;154.52;;;;;;;14.48;32.29;94721.03;5038001;28;20460;-68
2022/01/28 03:45:31;;;;;;;193.50;154.45;;;;;;;14.49;32.33;94724.47;5041713;28;20116;-68
2022/01/28 03:47:56;;;;;;;192.02;152.75;;;;;;;14.48;32.34;94733.72;5042380;28;20055;-68
2022/01/28 03:50:22;;;;;;;191.20;152.52;;;;;;;14.49;32.33;94727.16;5048384;28;20162;-68
2022/01/28 03:52:47;;;;;;;192.95;152.65;;;;;;;14.46;32.34;94736.81;5041967;28;20098;-67
2022/01/28 03:55:13;;;;;;;196.25;156.00;;;;;;;14.47;32.14;94745.66;5041153;28;20133;-67
2022/01/28 03:57:39;;;;;;;198.63;157.50;;;;;;;14.48;32.30;94742.56;5041439;28;20048;-68
2022/01/28 04:00:06;;;;;;;193.43;154.52;;;;;;;14.45;32.48;94740.69;5040604;28;20053;-68
2022/01/28 04:02:35;;;;;;;208.68;166.13;;;;;;;14.47;32.24;94737.59;5022274;28;20041;-67
2022/01/28 04:13:33;;;;;;;200.40;157.48;;;;;;;14.47;32.17;94734.88;4978934;28;20041;-67
2022/01/28 04:18:24;;;;;;;191.02;151.52;;;;;;;14.46;32.14;94744.91;5012682;28;20235;-67
2022/01/28 04:20:50;;;;;;;192.88;154.32;;;;;;;14.43;32.45;94747.66;5045758;28;20078;-67
2022/01/28 04:23:16;;;;;;;188.68;149.25;;;;;;;14.42;32.26;94752.28;5044715;28;20053;-67
2022/01/28 04:25:41;;;;;;;196.40;155.63;;;;;;;14.41;32.25;94749.97;5043539;28;20497;-67
2022/01/28 04:28:07;;;;;;;198.25;156.60;;;;;;;14.40;32.31;94749.19;5045836;28;20412;-67
2022/01/28 04:30:33;;;;;;;195.35;156.63;;;;;;;14.42;32.33;94751.50;5048773;28;20045;-68
2022/01/28 04:32:59;;;;;;;190.88;151.45;;;;;;;14.44;32.45;94744.53;5046545;28;20152;-68
2022/01/28 04:35:24;;;;;;;192.52;152.65;;;;;;;14.46;32.14;94738.75;5048293;28;20048;-68
2022/01/28 04:40:23;;;;;;;202.40;161.13;;;;;;;14.46;32.26;94738.75;5044983;28;20057;-67
2022/01/28 04:45:46;;;;;;;193.48;153.65;;;;;;;14.47;32.40;94738.34;5048468;28;20052;-68
2022/01/28 04:48:27;;;;;;;195.07;154.55;;;;;;;14.48;32.35;94741.78;5045412;28;20040;-67
2022/01/28 04:55:57;;;;;;;194.98;154.95;;;;;;;14.49;32.22;94748.69;5049081;28;20032;-68
2022/01/28 04:58:56;;;;;;;189.85;148.65;;;;;;;14.49;32.15;94746.00;5048734;28;20057;-67
2022/01/28 05:11:42;;;;;;;195.55;155.73;;;;;;;14.50;32.16;94756.34;5044979;28;20056;-67
2022/01/28 05:27:27;;;;;;;192.35;150.90;;;;;;;14.52;32.27;94764.00;5045363;28;20056;-68
2022/01/28 05:29:53;;;;;;;193.38;153.35;;;;;;;14.50;32.35;94756.34;5043253;28;20047;-66
2022/01/28 05:32:18;;;;;;;196.10;157.20;;;;;;;14.52;32.36;94766.72;5045729;28;20377;-69
2022/01/28 05:34:44;;;;;;;198.20;157.63;;;;;;;14.53;32.08;94759.38;5043155;28;20045;-70
2022/01/28 05:37:10;;;;;;;196.90;157.93;;;;;;;14.50;32.27;94782.50;5029322;28;20416;-68
2022/01/28 05:39:36;;;;;;;189.98;150.23;;;;;;;14.50;32.40;94775.19;5043707;28;20045;-67
2022/01/28 05:42:02;;;;;;;192.95;155.18;;;;;;;14.52;32.14;94774.78;5043040;28;20041;-68
2022/01/28 05:44:27;;;;;;;204.13;164.02;;;;;;;14.56;32.04;94782.78;5046358;28;20430;-66
2022/01/28 05:46:56;;;;;;;193.98;155.43;;;;;;;14.57;32.05;94784.31;5045245;28;20191;-70
2022/01/28 05:49:22;;;;;;;197.20;157.35;;;;;;;14.58;32.14;94788.53;5047041;28;20060;-68
2022/01/28 05:51:48;;;;;;;202.13;160.82;;;;;;;14.59;32.19;94788.13;5044683;28;20113;-68
2022/01/28 05:54:14;;;;;;;192.60;155.90;;;;;;;14.60;32.22;94796.94;5047018;28;20045;-68
2022/01/28 05:56:40;;;;;;;193.50;154.20;;;;;;;14.58;32.12;94789.28;5051824;28;20612;-67
2022/01/28 05:59:05;;;;;;;198.85;159.48;;;;;;;14.61;32.15;94785.78;5045387;28;20493;-66
2022/01/28 06:01:31;;;;;;;194.43;154.95;;;;;;;14.62;32.25;94792.66;5047422;28;20575;-67
2022/01/28 06:03:57;;;;;;;194.40;155.70;;;;;;;14.63;32.24;94793.44;5046336;28;20124;-67
2022/01/28 06:06:24;;;;;;;190.18;151.23;;;;;;;14.64;32.04;94792.25;5046828;28;20719;-68
2022/01/28 06:08:54;;;;;;;198.15;160.80;;;;;;;14.65;32.01;94793.78;5051195;28;20048;-68
2022/01/28 06:11:22;;;;;;;194.82;155.60;;;;;;;14.65;32.10;94810.69;5048055;28;20040;-67
2022/01/28 06:13:48;;;;;;;194.02;155.23;;;;;;;14.67;31.99;94807.59;5047897;28;20052;-67
2022/01/28 06:16:15;;;;;;;196.55;157.15;;;;;;;14.68;32.19;94811.81;5044908;28;20056;-67
2022/01/28 06:18:43;;;;;;;197.00;158.63;;;;;;;14.68;31.99;94815.25;5048221;28;20079;-67
2022/01/28 06:21:09;;;;;;;194.27;156.13;;;;;;;14.68;31.83;94820.63;5050181;28;20049;-67
2022/01/28 06:23:35;;;;;;;195.82;156.80;;;;;;;14.69;32.11;94821.41;5043405;28;20052;-67
2022/01/28 06:26:01;;;;;;;195.93;157.75;;;;;;;14.69;32.09;94826.78;5046320;28;20053;-67
2022/01/28 06:28:26;;;;;;;194.23;156.88;;;;;;;14.69;31.95;94832.94;5049474;28;20049;-67
2022/01/28 06:30:52;;;;;;;194.85;158.18;;;;;;;14.70;32.17;94836.38;5028421;28;20194;-67
2022/01/28 06:33:18;;;;;;;197.30;158.82;;;;;;;14.70;32.18;94837.16;5045204;28;20145;-67
2022/01/28 06:35:45;;;;;;;197.68;157.68;;;;;;;14.70;32.19;94841.78;5048473;28;20489;-67
2022/01/28 06:38:11;;;;;;;194.30;155.45;;;;;;;14.74;31.83;94845.16;5047874;28;21170;-68
2022/01/28 06:40:37;;;;;;;197.20;158.23;;;;;;;14.71;32.08;94854.81;5043337;28;21302;-67
2022/01/28 06:43:03;;;;;;;195.77;157.82;;;;;;;14.71;32.07;94868.28;5043214;28;20104;-68
2022/01/28 06:45:28;;;;;;;193.73;156.95;;;;;;;14.72;32.12;94867.09;5045148;28;20568;-67
2022/01/28 06:47:54;;;;;;;193.55;155.38;;;;;;;14.72;32.17;94877.88;5045267;28;20661;-67
2022/01/28 06:50:19;;;;;;;203.65;164.82;;;;;;;14.70;32.21;94882.16;5042888;28;20212;-67
2022/01/28 06:52:45;;;;;;;192.10;155.75;;;;;;;14.69;32.08;94880.63;5043622;28;20090;-67
2022/01/28 06:55:12;;;;;;;195.07;156.82;;;;;;;14.68;32.23;94879.88;5043857;28;20080;-67
2022/01/28 06:57:38;;;;;;;194.52;157.02;;;;;;;14.70;32.13;94879.47;5049404;28;20132;-67
2022/01/28 07:00:06;;;;;;;192.23;153.75;;;;;;;14.71;32.03;94878.28;5048237;28;20152;-67
2022/01/28 07:02:31;;;;;;;207.18;166.13;;;;;;;14.68;32.11;94877.19;5046921;28;20489;-68
2022/01/28 07:04:57;;;;;;;203.48;163.93;;;;;;;14.69;32.12;94881.38;5042178;28;20088;-67
2022/01/28 07:07:24;;;;;;;197.60;158.95;;;;;;;14.67;31.92;94875.66;5021945;28;20049;-67
2022/01/28 07:09:51;;;;;;;191.48;152.65;;;;;;;14.70;32.09;94877.53;5047426;28;20036;-67
2022/01/28 07:12:17;;;;;;;193.98;155.95;;;;;;;14.69;32.22;94875.25;5027829;28;20041;-68
2022/01/28 07:14:42;;;;;;;190.85;153.55;;;;;;;14.70;32.09;94874.06;5044261;28;20484;-67
2022/01/28 07:17:08;;;;;;;197.43;159.75;;;;;;;14.70;31.55;94880.22;5046613;28;20416;-68
2022/01/28 07:19:34;;;;;;;193.00;154.52;;;;;;;14.72;32.05;94879.81;5049145;28;20226;-67
2022/01/28 07:21:59;;;;;;;194.18;156.27;;;;;;;14.71;31.93;94865.59;5043442;28;20053;-67
2022/01/28 07:24:25;;;;;;;194.30;157.10;;;;;;;14.72;31.94;94874.44;5045782;28;20245;-67
2022/01/28 07:26:51;;;;;;;199.68;160.02;;;;;;;14.72;32.18;94875.19;5047499;28;20044;-67
2022/01/28 07:29:17;;;;;;;193.90;155.38;;;;;;;14.75;32.03;94877.06;5046041;28;20674;-68
2022/01/28 07:31:44;;;;;;;197.60;158.90;;;;;;;14.76;31.85;94875.88;5045453;28;20412;-67
2022/01/28 07:34:10;;;;;;;197.45;158.95;;;;;;;14.76;31.95;94872.44;5047950;28;20055;-67
2022/01/28 07:36:37;;;;;;;202.68;164.50;;;;;;;14.75;31.90;94887.06;5046174;28;20037;-67
2022/01/28 07:39:05;;;;;;;193.73;154.27;;;;;;;14.73;32.11;94884.03;5047311;28;20041;-67
2022/01/28 07:41:31;;;;;;;198.13;158.93;;;;;;;14.71;32.04;94892.50;5045004;28;20040;-68
2022/01/28 07:43:57;;;;;;;195.05;157.23;;;;;;;14.70;31.89;94879.47;5043332;28;20049;-67
2022/01/28 07:46:22;;;;;;;202.70;163.15;;;;;;;14.74;32.14;94882.84;5040270;28;20048;-67
2022/01/28 07:48:48;;;;;;;199.70;159.40;;;;;;;14.73;31.99;94892.09;5042303;28;20077;-67
2022/01/28 07:51:13;;;;;;;198.60;159.90;;;;;;;14.73;32.05;94895.56;5046876;28;20468;-68
2022/01/28 07:53:39;;;;;;;200.77;161.27;;;;;;;14.74;31.99;94891.69;5044169;28;20047;-67
2022/01/28 07:56:05;;;;;;;199.63;162.30;;;;;;;14.72;32.03;94904.81;5045686;28;20041;-68
2022/01/28 07:58:30;;;;;;;194.68;156.07;;;;;;;14.71;31.96;94919.44;5041225;28;20064;-68
2022/01/28 08:00:56;;;;;;;198.40;158.23;;;;;;;14.68;32.00;94911.41;5042629;28;20045;-67
2022/01/28 08:03:21;;;;;;;197.57;158.32;;;;;;;14.68;32.01;94914.88;5047416;28;20049;-68
2022/01/28 08:05:47;;;;;;;193.65;156.02;;;;;;;14.72;32.07;94923.66;5052961;28;20077;-67
2022/01/28 08:08:13;;;;;;;195.60;156.60;;;;;;;14.71;32.01;94919.44;5052466;28;20044;-68
2022/01/28 08:10:39;;;;;;;194.25;155.70;;;;;;;14.68;32.00;94922.19;5033335;28;20164;-66
2022/01/28 08:13:05;;;;;;;196.98;160.02;;;;;;;14.71;32.06;94927.50;5051030;28;20053;-67
2022/01/28 08:15:32;;;;;;;195.30;157.88;;;;;;;14.70;31.98;94925.22;5048961;28;20440;-70
2022/01/28 08:17:57;;;;;;;198.48;159.95;;;;;;;14.72;32.05;94934.41;5048889;28;20068;-67
2022/01/28 08:20:23;;;;;;;203.98;163.75;;;;;;;14.69;31.89;94954.09;5032027;28;20567;-67
2022/01/28 08:22:54;;;;;;;204.43;164.57;;;;;;;14.72;31.92;94939.03;5050300;28;20051;-66
2022/01/28 08:25:22;;;;;;;199.57;159.60;;;;;;;14.69;31.93;94956.00;5047951;28;20500;-66
2022/01/28 08:27:48;;;;;;;193.98;153.70;;;;;;;14.68;32.08;94955.25;5053078;28;20330;-67
2022/01/28 08:30:16;;;;;;;194.07;157.18;;;;;;;14.69;32.01;94956.78;5050443;28;20058;-66
2022/01/28 08:32:43;;;;;;;219.25;173.98;;;;;;;14.69;31.89;94951.38;5047574;28;20071;-66
2022/01/28 08:35:09;;;;;;;197.88;159.38;;;;;;;14.73;31.92;94968.25;5051303;28;20179;-66
2022/01/28 08:37:34;;;;;;;196.68;159.13;;;;;;;14.74;32.13;94966.31;5052972;28;20056;-67
2022/01/28 08:40:00;;;;;;;194.25;155.50;;;;;;;14.75;31.77;94974.00;5052197;28;21413;-67
2022/01/28 08:42:27;;;;;;;197.45;157.65;;;;;;;14.75;31.70;94975.91;5054708;28;20544;-67
2022/01/28 08:44:53;;;;;;;195.02;157.52;;;;;;;14.75;31.95;94974.00;5049792;28;20105;-66
2022/01/28 08:47:18;;;;;;;197.70;159.57;;;;;;;14.70;31.90;94979.84;5053342;28;20044;-67
2022/01/28 08:49:45;;;;;;;195.57;157.00;;;;;;;14.69;31.92;94972.94;5052378;28;20055;-66
2022/01/28 08:52:11;;;;;;;194.45;157.68;;;;;;;14.71;31.75;94967.91;5047969;28;21298;-66
2022/01/28 08:54:37;;;;;;;195.88;157.55;;;;;;;14.73;31.78;94968.25;5048146;28;20045;-66
2022/01/28 08:57:02;;;;;;;192.73;155.38;;;;;;;14.75;31.73;94973.22;5048974;28;20048;-66
2022/01/28 08:59:28;;;;;;;196.18;159.05;;;;;;;14.76;31.73;94961.28;5049149;28;20053;-66
2022/01/28 09:01:53;;;;;;;200.40;160.65;;;;;;;14.75;31.96;94978.63;5044898;28;20114;-66
2022/01/28 09:04:19;;;;;;;199.48;159.55;;;;;;;14.75;31.71;94959.75;5050200;28;20045;-65
2022/01/28 09:06:45;;;;;;;199.45;159.80;;;;;;;14.76;31.74;94972.81;5047890;28;20132;-64
2022/01/28 09:09:11;;;;;;;202.07;162.48;;;;;;;14.77;31.75;94970.88;5049509;28;20121;-65
2022/01/28 09:14:22;;;;;;;197.10;156.98;;;;;;;14.78;31.81;94970.47;5050326;28;20500;-66
2022/01/28 09:16:48;;;;;;;196.93;159.52;;;;;;;14.79;31.73;94969.31;5029817;28;20048;-66
2022/01/28 09:19:14;;;;;;;200.23;160.93;;;;;;;14.81;31.70;94975.03;5051741;28;20068;-65
2022/01/28 09:21:39;;;;;;;200.55;162.35;;;;;;;14.81;31.97;94972.34;5045613;28;20512;-66
2022/01/28 09:24:05;;;;;;;198.18;161.15;;;;;;;14.82;31.76;94981.19;5046303;28;20041;-66
2022/01/28 09:26:31;;;;;;;208.10;167.13;;;;;;;14.78;31.79;94981.25;5043240;28;20048;-65
2022/01/28 09:28:57;;;;;;;195.80;158.38;;;;;;;14.77;31.78;94979.72;5042937;28;20067;-66
2022/01/28 09:31:22;;;;;;;197.85;159.18;;;;;;;14.76;31.72;94985.53;5045970;28;20065;-66
2022/01/28 09:33:48;;;;;;;195.45;158.52;;;;;;;14.76;31.70;94988.22;5045450;28;20458;-65
2022/01/28 09:36:14;;;;;;;199.68;161.05;;;;;;;14.76;31.57;94993.59;5042956;28;21356;-66
2022/01/28 09:38:39;;;;;;;197.48;158.68;;;;;;;14.74;31.79;94985.94;5042095;28;20440;-66
2022/01/28 09:41:08;;;;;;;199.90;161.20;;;;;;;14.76;31.65;94998.97;5043617;28;20063;-65
2022/01/28 09:43:33;;;;;;;197.38;158.65;;;;;;;14.73;31.79;94994.41;5040981;28;20040;-66
2022/01/28 09:46:00;;;;;;;195.45;157.13;;;;;;;14.76;31.83;94999.75;5048783;28;20055;-66
2022/01/28 09:48:26;;;;;;;196.77;158.25;;;;;;;14.75;31.69;95003.59;5043914;28;20413;-66
2022/01/28 09:50:52;;;;;;;198.93;160.05;;;;;;;14.77;31.81;95003.19;5048057;28;20057;-66
2022/01/28 09:53:18;;;;;;;200.10;160.65;;;;;;;14.76;31.67;95010.50;5042343;28;20555;-64
2022/01/28 09:55:45;;;;;;;198.10;159.98;;;;;;;14.75;31.83;95005.53;5047607;28;20126;-64
2022/01/28 09:58:11;;;;;;;200.52;161.70;;;;;;;14.76;31.71;95015.91;5046334;28;20061;-65
2022/01/28 10:00:37;;;;;;;192.70;155.85;;;;;;;14.74;31.64;95007.47;5046274;28;20193;-65
2022/01/28 10:03:08;;;;;;;203.80;163.70;;;;;;;14.75;31.62;95014.38;5044675;28;20051;-65
2022/01/28 10:05:45;;;;;;;201.07;161.85;;;;;;;14.74;31.75;95006.72;5041662;28;20048;-65
2022/01/28 10:08:12;;;;;;;200.20;160.38;;;;;;;14.76;31.77;95012.44;5045896;28;20045;-65
2022/01/28 10:10:53;;;;;;;199.13;159.32;;;;;;;14.73;31.69;95027.47;5047063;28;20053;-64
2022/01/28 10:13:38;;;;;;;199.13;160.27;;;;;;;14.72;31.66;95027.88;5041517;28;20072;-64
2022/01/28 10:16:10;;;;;;;198.07;158.35;;;;;;;14.73;31.60;95019.41;5046521;28;20051;-64
2022/01/28 10:19:01;;;;;;;198.80;159.90;;;;;;;14.74;31.47;95015.53;5041930;28;20465;-64
2022/01/28 10:21:38;;;;;;;199.00;158.38;;;;;;;14.78;31.61;95010.88;5047308;28;20599;-64
2022/01/28 10:24:11;;;;;;;204.40;164.82;;;;;;;14.80;31.60;95015.84;5050860;28;20048;-64
2022/01/28 10:26:49;;;;;;;195.45;156.77;;;;;;;14.81;31.59;95009.28;5047177;28;20057;-64
2022/01/28 10:29:19;;;;;;;202.30;163.32;;;;;;;14.81;31.79;95018.13;5046966;28;20040;-64
2022/01/28 10:31:53;;;;;;;197.90;158.70;;;;;;;14.81;31.59;95015.44;5047359;28;20048;-64
2022/01/28 10:34:39;;;;;;;198.40;159.77;;;;;;;14.81;31.53;95014.69;5044150;28;20049;-64
2022/01/28 10:37:20;;;;;;;192.35;153.55;;;;;;;14.80;31.57;95013.16;5046413;28;20089;-64
2022/01/28 10:39:58;;;;;;;197.77;158.85;;;;;;;14.77;31.44;95013.97;5044729;28;20074;-65
2022/01/28 10:42:43;;;;;;;204.25;163.35;;;;;;;14.80;31.63;95013.91;5043179;28;20485;-65
2022/01/28 10:45:15;;;;;;;199.60;159.27;;;;;;;14.80;31.71;95013.16;5048549;28;20139;-64
2022/01/28 10:47:49;;;;;;;191.50;154.23;;;;;;;14.81;31.66;95012.75;5045920;28;21340;-64
2022/01/28 10:50:16;;;;;;;198.27;160.45;;;;;;;14.82;31.62;95014.28;5046781;28;20033;-64
2022/01/28 10:52:42;;;;;;;205.02;164.13;;;;;;;14.82;31.42;95022.34;5044896;28;20056;-64
2022/01/28 10:55:15;;;;;;;204.48;164.40;;;;;;;14.82;31.53;95019.66;5043978;28;20044;-64
2022/01/28 10:57:40;;;;;;;197.63;157.10;;;;;;;14.81;31.56;95017.38;5044624;28;20343;-64
2022/01/28 11:00:07;;;;;;;195.23;156.13;;;;;;;14.80;31.50;95018.53;5046745;28;20152;-64
2022/01/28 11:02:33;;;;;;;211.88;171.05;;;;;;;14.77;31.48;95003.97;5044071;28;20041;-64
2022/01/28 11:04:59;;;;;;;192.75;155.52;;;;;;;14.75;31.49;95002.84;5045186;28;20045;-64
2022/01/28 11:07:27;;;;;;;193.55;155.52;;;;;;;14.75;31.38;95014.38;5048482;28;20048;-64
2022/01/28 11:09:52;;;;;;;202.38;163.43;;;;;;;14.75;31.45;95014.38;5044034;28;20567;-64
2022/01/28 11:12:18;;;;;;;198.60;159.30;;;;;;;14.78;31.37;95021.66;5049775;28;20078;-64
2022/01/28 11:14:44;;;;;;;198.93;160.80;;;;;;;14.80;31.22;95018.53;5045456;28;20055;-64
2022/01/28 11:17:11;;;;;;;190.43;152.30;;;;;;;14.80;31.10;95013.91;5045419;28;20052;-64
2022/01/28 11:19:38;;;;;;;195.73;157.23;;;;;;;14.81;31.33;95015.44;5047503;28;20068;-64
2022/01/28 11:22:24;;;;;;;195.80;159.30;;;;;;;14.83;31.34;95005.03;5045542;28;20619;-65
2022/01/28 11:25:28;;;;;;;198.40;159.65;;;;;;;14.81;31.32;95001.97;5025082;28;20442;-64
2022/01/28 11:27:54;;;;;;;193.55;154.52;;;;;;;14.80;31.46;95003.16;5047522;28;20453;-64
2022/01/28 11:30:25;;;;;;;198.10;161.48;;;;;;;14.74;31.15;94994.00;5043472;28;20047;-64
2022/01/28 11:33:08;;;;;;;205.57;165.25;;;;;;;14.76;31.11;95007.81;5043383;28;20048;-64
2022/01/28 11:35:49;;;;;;;194.60;156.18;;;;;;;14.73;30.99;95008.63;5044337;28;20493;-64
2022/01/28 11:38:29;;;;;;;196.38;157.43;;;;;;;14.73;31.10;94997.88;5043476;28;20136;-64
2022/01/28 11:41:11;;;;;;;196.75;157.57;;;;;;;14.77;31.26;94997.81;5039798;28;20056;-64
2022/01/28 11:43:56;;;;;;;203.93;163.23;;;;;;;14.78;31.09;94993.94;5038647;28;20071;-64
2022/01/28 11:46:24;;;;;;;195.40;156.80;;;;;;;14.78;31.16;94981.25;5042328;28;20040;-64
2022/01/28 11:48:55;;;;;;;193.88;156.73;;;;;;;14.78;31.13;94978.56;5041417;28;20079;-64
2022/01/28 11:51:23;;;;;;;198.52;159.52;;;;;;;14.80;31.04;94978.16;5045510;28;20912;-64
2022/01/28 11:53:57;;;;;;;203.43;163.38;;;;;;;14.75;31.09;94984.75;5042405;28;20041;-64
2022/01/28 11:56:26;;;;;;;202.30;162.93;;;;;;;14.76;30.92;94983.59;5034646;28;21390;-64
2022/01/28 11:58:57;;;;;;;197.13;157.30;;;;;;;14.79;31.03;94987.41;5041316;28;20075;-64
2022/01/28 12:01:24;;;;;;;197.23;159.93;;;;;;;14.78;30.94;94993.94;5044267;28;20498;-64
2022/01/28 12:03:50;;;;;;;210.05;169.73;;;;;;;14.79;30.98;94996.25;5045531;28;20045;-64
2022/01/28 12:06:17;;;;;;;194.48;155.57;;;;;;;14.81;30.92;94987.75;5038812;28;20052;-64
2022/01/28 12:08:44;;;;;;;195.88;158.65;;;;;;;14.82;31.15;94978.50;5037300;28;20053;-64
2022/01/28 12:11:12;;;;;;;194.65;156.73;;;;;;;14.82;30.97;94984.66;5039670;28;20040;-64
2022/01/28 12:14:13;;;;;;;193.73;156.18;;;;;;;14.84;31.05;94978.84;5042507;28;20489;-65
2022/01/28 12:16:42;;;;;;;190.63;150.55;;;;;;;14.82;30.88;94983.88;5044245;28;20136;-64
2022/01/28 12:19:22;;;;;;;201.35;163.05;;;;;;;14.82;31.08;94989.28;5039926;28;20040;-64
2022/01/28 12:22:04;;;;;;;204.50;163.68;;;;;;;14.82;31.01;94967.72;5038485;28;20055;-64
2022/01/28 12:24:32;;;;;;;197.98;157.95;;;;;;;14.81;30.72;94969.66;5044911;28;20129;-64
2022/01/28 12:27:13;;;;;;;196.68;159.45;;;;;;;14.82;31.03;94973.88;5042506;28;20532;-64
2022/01/28 12:29:50;;;;;;;194.05;154.60;;;;;;;14.83;31.03;94972.72;5041460;28;20048;-64
2022/01/28 12:32:23;;;;;;;192.40;153.02;;;;;;;14.81;30.76;94975.03;5045918;28;20048;-64
2022/01/28 12:34:49;;;;;;;193.27;155.55;;;;;;;14.78;30.83;94972.41;5045581;28;20041;-64
2022/01/28 12:37:20;;;;;;;193.35;156.15;;;;;;;14.76;30.98;94972.06;5044231;28;20040;-64
2022/01/28 12:39:55;;;;;;;193.90;153.25;;;;;;;14.80;30.86;94975.47;5043269;28;20053;-64